createdAt,value
2019-03-29T00:02:31.932Z,102176.95
2019-03-29T00:07:39.736Z,102181.63
2019-03-29T00:12:39.036Z,102181.63
2019-03-29T00:17:41.768Z,102185.78
2019-03-29T00:22:44.408Z,102186.56
2019-03-29T00:27:46.998Z,102194.65
2019-03-29T00:32:49.636Z,102182.34
2019-03-29T00:37:53.864Z,102177.20
2019-03-29T00:42:56.696Z,102180.03
2019-03-29T00:47:59.282Z,102182.54
2019-03-29T00:53:01.898Z,102182.83
2019-03-29T00:58:04.607Z,102180.32
2019-03-29T01:03:07.261Z,102184.71
2019-03-29T01:08:10.793Z,102178.59
2019-03-29T01:13:13.576Z,102176.76
2019-03-29T01:18:16.173Z,102174.12
2019-03-29T01:23:18.799Z,102176.45
2019-03-29T01:28:21.702Z,102173.72
2019-03-29T01:33:25.060Z,102165.67
2019-03-29T01:38:28.176Z,102163.41
2019-03-29T01:43:31.865Z,102159.95
2019-03-29T01:48:34.548Z,102155.44
2019-03-29T01:53:37.294Z,102153.19
2019-03-29T01:58:40.721Z,102156.52
2019-03-29T02:03:44.740Z,102147.16
2019-03-29T02:08:47.300Z,102139.36
2019-03-29T02:13:49.909Z,102140.92
2019-03-29T02:18:52.535Z,102133.81
2019-03-29T02:23:55.172Z,102138.94
2019-03-29T02:28:57.716Z,102131.80
2019-03-29T02:34:00.290Z,102130.98
2019-03-29T02:39:03.974Z,102124.13
2019-03-29T02:44:07.611Z,102123.38
2019-03-29T02:49:12.630Z,102115.59
2019-03-29T02:54:15.230Z,102113.01
2019-03-29T02:59:17.774Z,102117.41
2019-03-29T03:04:20.438Z,102107.71
2019-03-29T03:09:23.095Z,102106.02
2019-03-29T03:14:25.733Z,102106.89
2019-03-29T03:19:28.329Z,102105.13
2019-03-29T03:24:31.063Z,102103.03
2019-03-29T03:29:33.658Z,102105.45
2019-03-29T03:34:36.168Z,102099.73
2019-03-29T03:39:38.842Z,102099.38
2019-03-29T03:44:41.499Z,102094.77
2019-03-29T03:49:44.136Z,102090.17
2019-03-29T03:54:46.764Z,102085.95
2019-03-29T03:59:53.420Z,102087.56
2019-03-29T04:04:56.076Z,102094.91
2019-03-29T04:10:01.116Z,102093.52
2019-03-29T04:15:05.713Z,102095.86
2019-03-29T04:20:10.595Z,102091.13
2019-03-29T04:25:13.353Z,102091.91
2019-03-29T04:30:16.053Z,102090.89
2019-03-29T04:35:18.712Z,102087.68
2019-03-29T04:40:21.373Z,102082.43
2019-03-29T04:45:25.857Z,102090.47
2019-03-29T04:50:29.739Z,102093.47
2019-03-29T04:55:33.627Z,102097.70
2019-03-29T05:00:36.273Z,102105.50
2019-03-29T05:05:38.954Z,102103.23
2019-03-29T05:10:41.635Z,102108.78
2019-03-29T05:15:44.263Z,102105.99
2019-03-29T05:20:46.889Z,102110.09
2019-03-29T05:25:49.547Z,102110.55
2019-03-29T05:30:52.068Z,102111.90
2019-03-29T05:35:54.737Z,102117.52
2019-03-29T05:40:57.415Z,102114.32
2019-03-29T05:46:00.029Z,102117.97
2019-03-29T05:51:03.889Z,102117.27
2019-03-29T05:56:07.646Z,102113.41
2019-03-29T06:01:10.321Z,102117.64
2019-03-29T06:06:12.992Z,102126.59
2019-03-29T06:11:15.589Z,102119.52
2019-03-29T06:16:18.209Z,102108.73
2019-03-29T06:21:20.988Z,102113.02
2019-03-29T06:26:23.604Z,102119.81
2019-03-29T06:31:26.191Z,102125.59
2019-03-29T06:36:30.328Z,102108.36
2019-03-29T06:41:32.977Z,102108.43
2019-03-29T06:46:35.624Z,102112.96
2019-03-29T06:51:38.308Z,102108.41
2019-03-29T06:56:41.002Z,102113.61
2019-03-29T07:01:46.301Z,102111.87
2019-03-29T07:06:50.617Z,102107.95
2019-03-29T07:11:53.270Z,102111.01
2019-03-29T07:16:55.943Z,102108.95
2019-03-29T07:21:58.671Z,102112.16
2019-03-29T07:27:01.394Z,102118.89
2019-03-29T07:32:04.105Z,102116.40
2019-03-29T07:37:06.746Z,102116.42
2019-03-29T07:42:09.396Z,102115.23
2019-03-29T07:47:12.068Z,102112.24
2019-03-29T07:52:14.741Z,102114.20
2019-03-29T07:57:21.198Z,102114.08
2019-03-29T08:02:23.882Z,102118.44
2019-03-29T08:07:28.127Z,102115.47
2019-03-29T08:12:31.256Z,102116.04
2019-03-29T08:17:34.011Z,102116.22
2019-03-29T08:22:37.788Z,102120.28
2019-03-29T08:27:40.396Z,102118.05
2019-03-29T08:32:43.003Z,102110.03
2019-03-29T08:37:45.632Z,102112.63
2019-03-29T08:42:48.238Z,102110.54
2019-03-29T08:47:50.817Z,102107.68
2019-03-29T08:52:57.003Z,102108.80
2019-03-29T08:57:59.729Z,102116.52
2019-03-29T09:03:02.444Z,102114.30
2019-03-29T09:08:05.065Z,102109.19
2019-03-29T09:13:07.764Z,102109.88
2019-03-29T09:18:10.599Z,102102.27
2019-03-29T09:23:13.214Z,102099.17
2019-03-29T09:28:16.187Z,102101.80
2019-03-29T09:33:20.984Z,102096.48
2019-03-29T09:38:23.505Z,102096.34
2019-03-29T09:43:26.779Z,102098.79
2019-03-29T09:48:30.257Z,102094.58
2019-03-29T09:53:32.945Z,102102.26
2019-03-29T09:58:35.547Z,102097.78
2019-03-29T10:03:38.240Z,102095.64
2019-03-29T10:08:40.887Z,102097.92
2019-03-29T10:13:43.491Z,102088.95
2019-03-29T10:18:46.206Z,102088.69
2019-03-29T10:23:48.789Z,102087.97
2019-03-29T10:28:51.459Z,102086.56
2019-03-29T10:33:54.119Z,102082.36
2019-03-29T10:38:56.693Z,102072.67
2019-03-29T10:43:59.687Z,102059.76
2019-03-29T10:49:02.292Z,102058.19
2019-03-29T10:54:04.908Z,102053.87
2019-03-29T10:59:07.505Z,102045.97
2019-03-29T11:04:10.415Z,102038.76
2019-03-29T11:09:13.044Z,102036.16
2019-03-29T11:14:15.720Z,102021.84
2019-03-29T11:19:18.380Z,102019.34
2019-03-29T11:24:21.021Z,102013.66
2019-03-29T11:29:24.038Z,101998.24
2019-03-29T11:34:26.656Z,101994.70
2019-03-29T11:39:29.241Z,101994.10
2019-03-29T11:44:31.858Z,101984.93
2019-03-29T11:49:34.435Z,101981.80
2019-03-29T11:54:36.981Z,101975.83
2019-03-29T11:59:40.290Z,101967.07
2019-03-29T12:04:43.139Z,101967.05
2019-03-29T12:09:45.783Z,101961.41
2019-03-29T12:14:48.454Z,101955.00
2019-03-29T12:19:51.100Z,101942.05
2019-03-29T12:24:53.702Z,101931.91
2019-03-29T12:29:56.307Z,101928.30
2019-03-29T12:34:58.791Z,101916.20
2019-03-29T12:40:01.470Z,101912.31
2019-03-29T12:45:04.930Z,101904.13
2019-03-29T12:50:08.523Z,101897.13
2019-03-29T12:55:11.211Z,101882.59
2019-03-29T13:00:14.460Z,101880.42
2019-03-29T13:05:17.152Z,101867.24
2019-03-29T13:10:19.797Z,101866.30
2019-03-29T13:15:23.639Z,101849.22
2019-03-29T13:20:26.451Z,101848.56
2019-03-29T13:25:29.054Z,101831.39
2019-03-29T13:30:31.970Z,101826.84
2019-03-29T13:35:35.078Z,101823.91
2019-03-29T13:40:37.732Z,101812.65
2019-03-29T13:45:40.377Z,101810.59
2019-03-29T13:50:42.941Z,101803.50
2019-03-29T13:55:45.550Z,101800.78
2019-03-29T14:00:48.224Z,101793.25
2019-03-29T14:05:50.853Z,101793.64
2019-03-29T14:10:53.567Z,101781.47
2019-03-29T14:15:56.205Z,101777.81
2019-03-29T14:21:00.055Z,101770.77
2019-03-29T14:26:04.594Z,101762.22
2019-03-29T14:31:07.172Z,101749.98
2019-03-29T14:36:09.774Z,101752.89
2019-03-29T14:41:12.386Z,101740.89
2019-03-29T14:46:14.976Z,101730.36
2019-03-29T14:51:17.605Z,101721.33
2019-03-29T14:56:20.273Z,101722.38
2019-03-29T15:01:22.799Z,101721.33
2019-03-29T15:06:25.497Z,101725.32
2019-03-29T15:11:28.111Z,101718.92
2019-03-29T15:16:30.747Z,101712.58
2019-03-29T15:21:33.363Z,101707.05
2019-03-29T15:26:35.995Z,101696.89
2019-03-29T15:31:38.663Z,101691.99
2019-03-29T15:36:41.291Z,101680.02
2019-03-29T15:41:43.925Z,101680.62
2019-03-29T15:46:46.509Z,101675.31
2019-03-29T15:51:49.116Z,101675.34
2019-03-29T15:56:51.815Z,101674.16
2019-03-29T16:01:54.524Z,101673.02
2019-03-29T16:06:57.108Z,101659.56
2019-03-29T16:12:01.073Z,101659.14
2019-03-29T16:17:03.710Z,101654.36
2019-03-29T16:22:06.374Z,101647.16
2019-03-29T16:27:09.135Z,101646.55
2019-03-29T16:32:11.782Z,101645.70
2019-03-29T16:37:16.272Z,101635.38
2019-03-29T16:42:18.909Z,101636.47
2019-03-29T16:47:21.532Z,101626.67
2019-03-29T16:52:24.181Z,101619.55
2019-03-29T16:57:26.878Z,101618.88
2019-03-29T17:02:29.556Z,101611.98
2019-03-29T17:07:32.337Z,101608.05
2019-03-29T17:12:35.240Z,101604.19
2019-03-29T17:17:37.900Z,101603.11
2019-03-29T17:22:43.279Z,101597.86
2019-03-29T17:27:51.996Z,101597.63
2019-03-29T17:32:57.808Z,101591.91
2019-03-29T17:38:00.464Z,101581.13
2019-03-29T17:43:03.089Z,101580.09
2019-03-29T17:48:05.804Z,101578.55
2019-03-29T17:53:08.375Z,101572.34
2019-03-29T17:58:11.082Z,101570.94
2019-03-29T18:03:13.753Z,101578.38
2019-03-29T18:08:16.368Z,101573.98
2019-03-29T18:13:19.055Z,101577.37
2019-03-29T18:18:29.554Z,101573.78
2019-03-29T18:23:32.147Z,101571.86
2019-03-29T18:28:38.120Z,101577.15
2019-03-29T18:33:43.213Z,101578.21
2019-03-29T18:38:46.688Z,101577.73
2019-03-29T18:43:49.455Z,101578.32
2019-03-29T18:48:52.086Z,101576.39
2019-03-29T18:53:54.797Z,101578.39
2019-03-29T18:58:57.296Z,101568.00
2019-03-29T19:04:00.014Z,101570.00
2019-03-29T19:09:03.980Z,101572.50
2019-03-29T19:14:06.700Z,101573.08
2019-03-29T19:19:10.474Z,101568.05
2019-03-29T19:24:13.524Z,101569.11
2019-03-29T19:29:16.153Z,101563.93
2019-03-29T19:34:18.851Z,101567.98
2019-03-29T19:39:21.527Z,101572.84
2019-03-29T19:44:24.143Z,101576.76
2019-03-29T19:49:26.791Z,101568.75
2019-03-29T19:54:29.331Z,101565.77
2019-03-29T19:59:32.014Z,101565.63
2019-03-29T20:04:34.671Z,101559.86
2019-03-29T20:09:37.363Z,101560.94
2019-03-29T20:14:42.115Z,101558.74
2019-03-29T20:19:44.756Z,101556.74
2019-03-29T20:24:47.414Z,101554.77
2019-03-29T20:29:52.187Z,101560.61
2019-03-29T20:34:54.777Z,101557.03
2019-03-29T20:39:57.378Z,101561.00
2019-03-29T20:44:59.874Z,101552.50
2019-03-29T20:50:02.862Z,101550.65
2019-03-29T20:55:05.738Z,101552.88
2019-03-29T21:00:10.122Z,101541.29
2019-03-29T21:05:12.702Z,101537.72
2019-03-29T21:10:15.721Z,101534.14
2019-03-29T21:15:18.445Z,101542.50
2019-03-29T21:20:21.113Z,101540.70
2019-03-29T21:25:24.086Z,101538.56
2019-03-29T21:30:26.666Z,101529.44
2019-03-29T21:35:29.380Z,101532.78
2019-03-29T21:40:31.966Z,101524.09
2019-03-29T21:45:34.596Z,101528.63
2019-03-29T21:50:37.202Z,101523.23
2019-03-29T21:55:39.807Z,101520.21
2019-03-29T22:00:44.220Z,101513.61
2019-03-29T22:05:46.903Z,101508.59
2019-03-29T22:10:49.696Z,101509.27
2019-03-29T22:15:52.310Z,101506.83
2019-03-29T22:20:56.165Z,101510.39
2019-03-29T22:25:58.866Z,101507.14
2019-03-29T22:31:01.496Z,101499.62
2019-03-29T22:36:04.139Z,101495.33
2019-03-29T22:41:06.721Z,101492.17
2019-03-29T22:46:09.320Z,101489.09
2019-03-29T22:51:11.975Z,101482.85
2019-03-29T22:56:14.570Z,101475.43
2019-03-29T23:01:17.749Z,101467.39
2019-03-29T23:06:20.361Z,101469.28
2019-03-29T23:11:22.999Z,101463.69
2019-03-29T23:16:25.619Z,101466.06
2019-03-29T23:21:28.274Z,101459.70
2019-03-29T23:26:32.146Z,101458.38
2019-03-29T23:31:34.768Z,101457.16
2019-03-29T23:36:37.411Z,101454.48
2019-03-29T23:41:40.039Z,101456.08
2019-03-29T23:46:42.726Z,101458.62
2019-03-29T23:51:45.333Z,101443.50
2019-03-29T23:56:47.980Z,101443.86
